AirNav   Everest Fuels
 
 1785 users online  

HI40 Kuakini Medical Center Heliport
Honolulu, Hawaii, USA

GOING TO HONOLULU?


FAA INFORMATION EFFECTIVE 02 JANUARY 2020

Location

FAA Identifier: HI40
Lat/Long: 21-19-16.0200N 157-51-24.1200W
21-19.267000N 157-51.402000W
21.3211167,-157.8567000
(estimated)
Elevation: 175 ft. / 53 m (estimated)
Variation: 11E (1985)
Time zone: UTC -10 (year round; does not observe DST)
Zip code: 96813

Heliport Operations

Heliport use: Private use. Permission required prior to landing
Activation date: 03/1980
Control tower: no
ARTCC: HONOLULU CONTROL FACILITY CENTER
FSS: HONOLULU FLIGHT SERVICE STATION
Attendance: UNATNDD
Wind indicator: yes
Segmented circle: no

Heliport Communications

WX ASOS at HNL (4 nm W): PHONE 808-836-0449
WX ASOS at JRF (12 nm W): 119.8 (808-673-7454)

Nearby radio navigation aids

VOR radial/distance  VOR name  Freq  Var
HNLr068/4.2HONOLULU VORTAC114.8011E
CKHr280/9.2KOKO HEAD VORTAC113.9011E

 
NDB name  Hdg/Dist  Freq  Var  ID
EWABE080/10.724211EHN .... -.

Heliport Services

Runway Information

Helipad H1

Dimensions: 90 x 90 ft. / 27 x 27 m
Surface: concrete
ROOFTOP HELIPORT.
Latitude: 21-19.267000N
Longitude: 157-51.402000W
Elevation: 175.0 ft.
Traffic pattern: leftleft

Heliport Ownership and Management from official FAA records

Ownership: Privately-owned
Owner: KUAKINI MEDICAL CENTER
347 N KUAKINI ST
HONOLULU, HI 96817
Phone 808-547-9810
Manager: GARY KAJIWARA
347 N KUAKINI ST
HONOLULU, HI 96817
Phone 808-547-9231

Additional Remarks

DIRECTOR OF FACILITY MANAGEMENT - KEVIN MATSUKADO - 808-547-9506 - K.MATSUKADO@KUAKINI.ORG
FOR CD CTC HCF CENTER AT 808-840-6262

Instrument Procedures

There are no published instrument procedures at HI40.

Some nearby airports with instrument procedures:

PHNL - Daniel K Inouye International Airport (4 nm W)
PHJR - Kalaeloa Airport (John Rodgers Field) (12 nm W)
PHMK - Molokai Airport (44 nm E)
PHLU - Kalaupapa Airport (50 nm E)
PHNY - Lanai Airport (60 nm SE)
 
Loc | Ops | Rwys | IFR | FBO | Links
Com | Nav | Svcs | Stats | Notes
Area around HI40 (Kuakini Medical Center Heliport)
 
Road maps at: MapQuest Bing Google
 
Aerial photo
No photo
 
Sectional chart

 
Airport distance calculator
Flying to Kuakini Medical Center Heliport? Find the distance to fly.

From to HI40

Sunrise and sunset
Times for 28-Jan-2020
 Local
(UTC-10)
 Zulu
(UTC)
Morning civil twilight06:4816:48
Sunrise07:1117:11
Sunset18:1804:18
Evening civil twilight18:4104:41

Current date and time
Zulu (UTC)  28-Jan-2020 18:22:12
Local (UTC-10)  28-Jan-2020 08:22:12
 
METAR
PHNL 
5nm W 
281753Z 32004KT 10SM FEW025 SCT047 19/16 A3014 RMK AO2 SLP204 T01940161 10194 20178 53013
PHNG 
8nm NE 
281757Z 18003KT 10SM FEW040 SCT055 21/18 A3011 RMK AO2 SLP191 T02060183 10211 20189 53015 $
PHJR 
12nm W 
281753Z 04004KT 10SM CLR 17/14 A3015 RMK AO2 SLP215 T01720139 10178 20161 52014
PHHI 
12nm NW 
281756Z AUTO 35003KT 10SM CLR 17/14 A3014 RMK AO2 SLP201 T01670143 10167 20142 52015 $
TAF
PHNL 
5nm W 
272103Z 2721/2824 10008KT P6SM FEW025 SCT045 FM280400 07005KT P6SM FEW025 BKN045 FM282100 12008KT P6SM FEW025 SCT050
PHNG 
8nm NE 
2721/2821 09008KT 9999 FEW025 SCT050 QNH3003INS TEMPO 2721/2803 08010G18KT BKN025 BKN045 FM280400 10008KT 9999 FEW025 SCT045 QNH3006INS TEMPO 2804/2810 VRB05KT 8000 -SHRA BKN025 T26/2723Z T22/2812Z
PHJR 
12nm W 
271742Z 2718/2818 05003KT P6SM SKC FM272000 12008KT P6SM FEW030 FM280000 15008KT P6SM FEW030 FM280300 VRB05KT P6SM FEW030
PHHI 
12nm NW 
272300Z 2723/2905 12009KT 9999 SCT035 SCT180 QNH3006INS TEMPO 2723/2803 12010G15KT BECMG 2805/2806 VRB06KT 9999 SCT020 QNH3009INS BECMG 2817/2818 12009KT 9999 FEW020 SCT035 QNH3012INS TX27/2801Z TN16/2812Z
NOTAMs
Click for the latest NOTAMs
NOTAMs are issued by the DoD/FAA and will open in a separate window not controlled by AirNav.

 

 
 

Would you like to see your business listed on this page?

 If your business provides an interesting product or service to pilots, flight crews, aircraft, or users of the Kuakini Medical Center Heliport, you should consider listing it here.  To start the listing process, click on the button below
 
Add a business
 

Other Pages about Kuakini Medical Center Heliport

Update a link
 
Copyright © AirNav, LLC. All rights reserved. Privacy Policy  Contact